Time;durP1;ratioP1;P1;durP2;ratioP2;P2;SDS_P1;SDS_P2;PMS_P1;PMS_P2;Temp;Humidity;BMP_temperature;BMP_pressure;BME280_temperature;BME280_humidity;BME280_pressure;Samples;Min_cycle;Max_cycle;Signal;HPM_P1;HPM_P2
2022/06/05 00:01:55;;;;;;;34.05;5.25;;;;;;;21.76;47.39;100713.97;5021964;28;20105;-87
2022/06/05 00:04:41;;;;;;;20.27;4.93;;;;;;;21.56;47.61;100712.88;5019786;28;20469;-85
2022/06/05 00:07:25;;;;;;;16.45;4.25;;;;;;;21.52;48.06;100717.06;5015490;28;20112;-86
2022/06/05 00:10:00;;;;;;;24.13;5.30;;;;;;;21.44;48.06;100718.03;4997645;28;20049;-86
2022/06/05 00:12:36;;;;;;;14.80;4.10;;;;;;;21.41;48.15;100712.94;5015078;28;20514;-86
2022/06/05 00:15:02;;;;;;;12.80;4.20;;;;;;;21.44;47.63;100707.09;5015564;28;20542;-86
2022/06/05 00:17:29;;;;;;;14.98;3.38;;;;;;;21.45;46.32;100702.47;4997652;28;20018;-86
2022/06/05 00:19:55;;;;;;;6.22;3.35;;;;;;;21.32;46.29;100691.34;5014935;28;20526;-86
2022/06/05 00:22:21;;;;;;;5.05;3.35;;;;;;;21.47;46.20;100712.16;5014606;28;20022;-87
2022/06/05 00:24:47;;;;;;;14.55;3.92;;;;;;;21.49;46.40;100699.16;4997317;28;20100;-87
2022/06/05 00:27:18;;;;;;;14.73;3.45;;;;;;;21.52;45.99;100697.91;5016288;28;20457;-86
2022/06/05 00:29:44;;;;;;;5.47;3.65;;;;;;;21.53;46.41;100694.97;5015585;28;20455;-86
2022/06/05 00:32:32;;;;;;;5.88;3.65;;;;;;;21.49;47.14;100688.22;4997233;28;20030;-86
2022/06/05 00:34:58;;;;;;;17.90;4.13;;;;;;;21.39;47.44;100676.72;5014418;28;20030;-86
2022/06/05 00:37:49;;;;;;;9.43;4.05;;;;;;;21.51;47.45;100679.78;5015117;28;20030;-87
2022/06/05 00:41:05;;;;;;;9.93;3.70;;;;;;;21.44;46.92;100679.72;4984810;28;20487;-86
2022/06/05 00:43:30;;;;;;;5.55;2.30;;;;;;;21.39;45.46;100665.78;4996837;28;20384;-87
2022/06/05 00:45:57;;;;;;;15.65;2.65;;;;;;;21.44;44.32;100671.50;5014094;28;20033;-86
2022/06/05 00:48:24;;;;;;;7.45;2.75;;;;;;;21.38;44.25;100658.59;5014728;28;20022;-86
2022/06/05 00:50:50;;;;;;;4.30;2.10;;;;;;;21.37;43.81;100662.41;5014154;28;20030;-86
2022/06/05 00:53:16;;;;;;;12.05;4.25;;;;;;;21.28;43.32;100654.50;4996547;28;20477;-86
2022/06/05 00:55:51;;;;;;;8.75;2.25;;;;;;;21.18;42.82;100654.81;4996792;28;20462;-86
2022/06/05 00:58:18;;;;;;;4.32;2.05;;;;;;;21.19;42.38;100659.25;5014209;28;20044;-86
2022/06/05 01:00:49;;;;;;;2.38;1.90;;;;;;;21.23;42.11;100667.88;5013674;28;20025;-86
2022/06/05 01:03:15;;;;;;;4.93;2.40;;;;;;;21.19;41.72;100659.25;5013861;28;20101;-85
2022/06/05 01:05:41;;;;;;;4.60;1.60;;;;;;;21.09;41.80;100651.34;4996398;28;20068;-86
2022/06/05 01:08:08;;;;;;;7.90;2.53;;;;;;;21.06;41.71;100648.09;5013725;28;20033;-86
2022/06/05 01:10:51;;;;;;;4.63;2.10;;;;;;;21.01;41.24;100645.94;5013958;28;20033;-86
2022/06/05 01:13:26;;;;;;;4.63;1.70;;;;;;;21.01;40.12;100640.47;4995979;28;20030;-86
2022/06/05 01:15:56;;;;;;;4.30;1.90;;;;;;;20.99;39.95;100641.69;5013792;28;20084;-86
2022/06/05 01:18:35;;;;;;;3.72;1.95;;;;;;;20.98;40.64;100635.38;5013677;28;20477;-85
2022/06/05 01:21:28;;;;;;;11.27;1.80;;;;;;;20.99;40.56;100641.69;4995922;28;20058;-86
2022/06/05 01:23:53;;;;;;;16.10;2.95;;;;;;;20.97;40.51;100638.31;4995636;28;20034;-86
2022/06/05 01:26:37;;;;;;;10.45;2.00;;;;;;;20.96;40.43;100634.72;5013832;28;20030;-86
2022/06/05 01:29:07;;;;;;;4.03;1.73;;;;;;;20.94;40.78;100633.22;5013604;28;20036;-86
2022/06/05 01:31:40;;;;;;;10.65;1.98;;;;;;;20.94;40.83;100619.56;4995814;28;20033;-86
2022/06/05 01:34:11;;;;;;;4.07;1.73;;;;;;;20.96;40.36;100625.69;5013371;28;20041;-86
2022/06/05 01:36:57;;;;;;;6.30;2.25;;;;;;;20.94;40.08;100605.91;4996212;28;20066;-86
2022/06/05 01:39:25;;;;;;;3.85;2.33;;;;;;;21.00;40.53;100627.00;4995355;28;20582;-86
2022/06/05 01:41:55;;;;;;;11.98;2.80;;;;;;;21.04;41.01;100618.19;4995322;28;20033;-85
2022/06/05 01:44:39;;;;;;;15.52;3.50;;;;;;;21.06;42.28;100624.34;5013566;28;20096;-85
2022/06/05 01:47:10;;;;;;;7.35;3.80;;;;;;;21.01;43.38;100609.53;5013819;28;20115;-86
2022/06/05 01:49:46;;;;;;;9.23;4.40;;;;;;;21.02;45.27;100609.34;5014221;28;20077;-86
2022/06/05 01:52:24;;;;;;;12.48;4.82;;;;;;;21.10;46.79;100616.59;5014426;28;20048;-85
2022/06/05 01:54:58;;;;;;;7.85;3.45;;;;;;;21.04;47.32;100620.09;5013456;28;20161;-80
2022/06/05 01:57:26;;;;;;;7.07;3.95;;;;;;;20.92;46.96;100608.81;5013546;28;20037;-86
2022/06/05 02:00:06;;;;;;;7.50;3.60;;;;;;;20.93;46.66;100620.59;4996899;28;20030;-86
2022/06/05 02:02:42;;;;;;;12.38;4.10;;;;;;;20.91;46.62;100622.69;5014672;28;20052;-86
2022/06/05 02:05:19;;;;;;;5.70;3.47;;;;;;;20.96;46.51;100625.69;4996234;28;20028;-86
2022/06/05 02:07:48;;;;;;;6.32;3.60;;;;;;;20.97;46.40;100621.91;5014817;28;20052;-86
2022/06/05 02:10:25;;;;;;;14.55;3.92;;;;;;;21.10;46.48;100643.97;5016843;28;20100;-87
2022/06/05 02:12:53;;;;;;;11.18;3.95;;;;;;;21.16;46.28;100644.03;4999673;28;20037;-87
2022/06/05 02:15:19;;;;;;;15.35;4.65;;;;;;;21.16;46.81;100632.25;4999790;28;20389;-86
2022/06/05 02:17:44;;;;;;;8.63;4.07;;;;;;;21.24;47.58;100640.34;5017719;28;20037;-88
2022/06/05 02:20:11;;;;;;;12.38;6.30;;;;;;;21.27;48.17;100623.56;5017442;28;20061;-86
2022/06/05 02:22:46;;;;;;;13.00;5.50;;;;;;;21.13;48.19;100627.16;5000052;28;20469;-88
2022/06/05 02:25:15;;;;;;;7.32;4.68;;;;;;;21.04;48.12;100633.75;5000238;28;20032;-86
2022/06/05 02:27:41;;;;;;;5.10;3.47;;;;;;;21.00;47.74;100632.47;4999740;28;20052;-86
2022/06/05 02:30:10;;;;;;;11.95;4.25;;;;;;;20.98;47.52;100634.53;5016964;28;20499;-87
2022/06/05 02:32:57;;;;;;;12.20;4.32;;;;;;;21.03;47.46;100640.28;4999792;28;20044;-86
2022/06/05 02:36:00;;;;;;;6.93;4.60;;;;;;;20.98;47.79;100635.38;5017103;28;20061;-85
2022/06/05 02:38:32;;;;;;;18.15;9.27;;;;;;;20.95;48.81;100635.75;4999391;28;20045;-86
2022/06/05 02:41:15;;;;;;;26.15;11.10;;;;;;;20.87;49.49;100638.63;4999524;28;20030;-86
2022/06/05 02:44:29;;;;;;;22.80;11.75;;;;;;;20.94;49.37;100644.16;4999455;28;20029;-87
2022/06/05 02:47:10;;;;;;;23.08;14.85;;;;;;;21.03;49.46;100651.22;5016759;28;20055;-87
2022/06/05 02:49:51;;;;;;;23.27;16.08;;;;;;;21.03;50.24;100643.03;4998816;28;20059;-85
2022/06/05 02:52:18;;;;;;;30.27;15.68;;;;;;;21.07;50.39;100649.78;4998771;28;20026;-87
2022/06/05 02:55:04;;;;;;;30.45;14.25;;;;;;;21.00;50.14;100643.41;5017340;28;20033;-87
2022/06/05 02:57:31;;;;;;;23.40;12.32;;;;;;;20.92;49.89;100629.81;4999058;28;20030;-88
2022/06/05 02:59:57;;;;;;;22.02;11.30;;;;;;;20.80;50.19;100636.81;4998837;28;20121;-88
2022/06/05 03:05:06;;;;;;;14.57;8.15;;;;;;;20.74;49.10;100632.13;5016930;28;20087;-88
2022/06/05 03:07:32;;;;;;;17.17;7.93;;;;;;;20.64;48.91;100616.00;4998837;28;20026;-88
2022/06/05 03:09:57;;;;;;;12.40;6.45;;;;;;;20.75;48.74;100628.34;4998760;28;20029;-85
2022/06/05 03:12:23;;;;;;;10.82;5.93;;;;;;;20.82;49.04;100635.63;5016052;28;20034;-88
2022/06/05 03:14:48;;;;;;;7.72;5.15;;;;;;;20.83;48.29;100626.34;5016036;28;20069;-88
2022/06/05 03:17:14;;;;;;;12.15;4.65;;;;;;;20.88;48.49;100636.75;4998499;28;20022;-88
2022/06/05 03:19:41;;;;;;;11.27;4.97;;;;;;;20.84;47.69;100619.88;4998049;28;20116;-86
2022/06/05 03:22:06;;;;;;;10.75;5.68;;;;;;;20.96;48.25;100628.41;5015896;28;20034;-87
2022/06/05 03:24:32;;;;;;;30.27;10.25;;;;;;;20.97;49.45;100627.38;5016037;28;20029;-86
2022/06/05 03:26:57;;;;;;;33.35;13.90;;;;;;;20.92;51.23;100618.88;4998071;28;20038;-86
2022/06/05 03:29:23;;;;;;;38.63;16.52;;;;;;;21.02;52.04;100619.44;5015517;28;20029;-86
2022/06/05 03:31:49;;;;;;;32.00;18.80;;;;;;;20.91;53.04;100601.66;5015660;28;20034;-88
2022/06/05 03:34:16;;;;;;;28.75;18.13;;;;;;;20.89;53.47;100613.81;4998386;28;20025;-88
2022/06/05 03:36:42;;;;;;;29.83;16.80;;;;;;;20.95;53.48;100615.78;5015414;28;20056;-86
2022/06/05 03:39:09;;;;;;;27.98;16.35;;;;;;;20.91;53.69;100611.75;4997989;28;20030;-86
2022/06/05 03:41:35;;;;;;;26.77;14.50;;;;;;;20.75;53.24;100609.22;5015422;28;20034;-87
2022/06/05 03:44:01;;;;;;;22.58;14.27;;;;;;;20.77;53.40;100604.41;5015662;28;20116;-87
2022/06/05 03:46:26;;;;;;;21.42;12.95;;;;;;;20.81;52.96;100600.25;4998004;28;20416;-88
2022/06/05 03:48:52;;;;;;;27.85;13.70;;;;;;;20.90;52.41;100596.38;4998363;28;20025;-88
2022/06/05 03:51:20;;;;;;;28.00;12.40;;;;;;;21.05;52.07;100602.66;5015059;28;20030;-87
2022/06/05 03:53:46;;;;;;;32.97;20.85;;;;;;;21.03;52.21;100593.78;5015098;28;20049;-87
2022/06/05 03:56:18;;;;;;;29.15;12.65;;;;;;;21.11;51.91;100596.44;4997940;28;20025;-88
2022/06/05 03:58:44;;;;;;;23.50;10.98;;;;;;;21.17;51.77;100596.50;5016852;28;20053;-88
2022/06/05 04:01:11;;;;;;;23.95;9.35;;;;;;;21.19;51.50;100587.28;5020640;28;20033;-86
2022/06/05 04:03:37;;;;;;;24.15;8.95;;;;;;;21.27;50.83;100588.00;5021358;28;20033;-85
2022/06/05 04:06:07;;;;;;;20.08;8.00;;;;;;;21.24;49.78;100591.13;5015801;28;20459;-86
2022/06/05 04:08:34;;;;;;;15.70;7.03;;;;;;;21.21;49.61;100594.25;5015171;28;20029;-88
2022/06/05 04:11:07;;;;;;;13.65;7.22;;;;;;;21.24;49.91;100577.44;4997304;28;20036;-88
2022/06/05 04:13:33;;;;;;;18.05;8.57;;;;;;;21.48;50.34;100593.47;4997350;28;20030;-88
2022/06/05 04:15:59;;;;;;;19.25;8.75;;;;;;;21.53;50.60;100582.75;4997321;28;20064;-87
2022/06/05 04:18:25;;;;;;;28.25;9.15;;;;;;;21.54;49.93;100576.25;5015472;28;20058;-88
2022/06/05 04:20:50;;;;;;;21.27;8.30;;;;;;;21.69;49.97;100584.38;5014876;28;20049;-88
2022/06/05 04:23:16;;;;;;;25.08;9.27;;;;;;;21.87;49.97;100581.13;5014684;28;20053;-87
2022/06/05 04:25:43;;;;;;;20.55;7.97;;;;;;;21.87;50.30;100570.19;5014472;28;20052;-87
2022/06/05 04:28:09;;;;;;;16.52;7.95;;;;;;;22.00;50.03;100564.84;4996934;28;20057;-87
2022/06/05 04:30:38;;;;;;;12.55;7.70;;;;;;;22.05;48.94;100573.28;4996596;28;20072;-87
2022/06/05 04:33:05;;;;;;;17.30;6.93;;;;;;;22.03;48.78;100559.81;5013692;28;20033;-86
2022/06/05 04:35:31;;;;;;;21.58;7.15;;;;;;;22.09;48.48;100563.63;4996560;28;20057;-87
2022/06/05 04:37:57;;;;;;;19.60;6.55;;;;;;;22.20;48.53;100561.19;4997088;28;20036;-87
2022/06/05 04:40:22;;;;;;;14.73;6.63;;;;;;;22.28;48.50;100557.44;4997095;28;20025;-87
2022/06/05 04:42:48;;;;;;;17.85;6.20;;;;;;;22.28;47.95;100551.97;4997188;28;20026;-87
2022/06/05 04:45:13;;;;;;;12.95;7.07;;;;;;;22.42;47.32;100564.66;4996710;28;20479;-87
2022/06/05 04:47:40;;;;;;;12.00;7.63;;;;;;;22.46;46.77;100552.25;4982279;28;20053;-87
2022/06/05 04:50:07;;;;;;;13.38;7.65;;;;;;;22.64;46.20;100569.00;4977346;28;20404;-87
2022/06/05 04:52:33;;;;;;;16.45;8.05;;;;;;;22.64;46.34;100549.81;4976885;28;20042;-90
2022/06/05 04:54:58;;;;;;;18.80;8.90;;;;;;;22.86;46.37;100560.69;4994951;28;20089;-87
2022/06/05 04:57:24;;;;;;;18.23;8.68;;;;;;;22.92;47.05;100549.72;4994481;28;20089;-85
2022/06/05 04:59:50;;;;;;;18.95;8.48;;;;;;;23.11;46.48;100568.16;4994200;28;20027;-89
2022/06/05 05:02:17;;;;;;;24.05;8.80;;;;;;;23.16;46.40;100567.50;4977075;28;20034;-89
2022/06/05 05:04:42;;;;;;;16.42;9.30;;;;;;;23.25;46.40;100561.63;4994130;28;20026;-84
2022/06/05 05:07:08;;;;;;;32.80;11.13;;;;;;;23.43;45.97;100577.50;4993291;28;20616;-84
2022/06/05 05:09:33;;;;;;;20.75;11.77;;;;;;;23.46;46.12;100562.50;4993800;28;20033;-85
2022/06/05 05:11:59;;;;;;;23.73;11.07;;;;;;;23.52;46.27;100558.94;4993684;28;20085;-85
2022/06/05 05:14:24;;;;;;;22.08;11.13;;;;;;;23.60;46.72;100567.81;4993845;28;20049;-83
2022/06/05 05:16:50;;;;;;;18.98;10.23;;;;;;;23.72;46.74;100568.88;4993824;28;20026;-83
2022/06/05 05:19:16;;;;;;;15.93;9.85;;;;;;;23.76;46.94;100564.63;4993468;28;20038;-85
2022/06/05 05:21:42;;;;;;;17.15;9.90;;;;;;;23.92;46.23;100568.00;4993456;28;20058;-87
2022/06/05 05:24:08;;;;;;;17.77;10.43;;;;;;;24.09;46.09;100570.13;5013686;28;20034;-90
2022/06/05 05:26:35;;;;;;;33.60;13.50;;;;;;;24.14;46.69;100572.25;4996651;28;20028;-92
2022/06/05 05:29:02;;;;;;;30.77;14.02;;;;;;;24.19;47.21;100572.44;4998384;28;20029;-93
2022/06/05 05:31:31;;;;;;;22.08;13.50;;;;;;;24.35;47.31;100570.06;4997650;28;20454;-94
2022/06/05 05:33:57;;;;;;;28.30;12.48;;;;;;;24.40;47.11;100560.34;4996851;28;20054;-91
2022/06/05 05:36:24;;;;;;;39.97;14.05;;;;;;;24.52;47.37;100564.13;4997216;28;20056;-91
2022/06/05 05:44:20;;;;;;;33.83;13.00;;;;;;;24.76;47.67;100571.63;5015156;28;20558;-85
2022/06/05 05:46:46;;;;;;;21.20;13.38;;;;;;;24.76;47.42;100577.13;5020938;28;20029;-86
2022/06/05 05:49:12;;;;;;;26.10;13.23;;;;;;;24.76;47.58;100568.88;5037414;28;20474;-85
2022/06/05 05:51:38;;;;;;;25.60;12.48;;;;;;;24.80;47.81;100570.97;5037372;28;20048;-85
2022/06/05 05:54:05;;;;;;;24.10;12.55;;;;;;;24.95;47.78;100581.75;5022497;28;20404;-84
2022/06/05 05:56:30;;;;;;;20.30;11.55;;;;;;;24.92;48.03;100580.25;4999702;28;20474;-90
2022/06/05 05:58:56;;;;;;;26.88;12.50;;;;;;;24.96;47.44;100577.91;4999614;28;20120;-87
2022/06/05 06:01:22;;;;;;;25.75;12.07;;;;;;;24.99;47.86;100576.63;4999995;28;20029;-85
2022/06/05 06:03:47;;;;;;;26.42;10.82;;;;;;;25.11;47.83;100577.59;5018102;28;20025;-88
2022/06/05 06:06:14;;;;;;;24.38;12.38;;;;;;;25.14;48.13;100569.75;5001234;28;20021;-90
2022/06/05 06:08:40;;;;;;;23.10;12.55;;;;;;;25.20;47.58;100579.03;5018187;28;20057;-90
2022/06/05 06:11:06;;;;;;;18.48;10.30;;;;;;;25.18;46.82;100570.16;5001441;28;20092;-88
2022/06/05 06:13:31;;;;;;;34.63;10.63;;;;;;;25.21;47.29;100567.81;5001561;28;20030;-89
2022/06/05 06:15:57;;;;;;;31.55;10.73;;;;;;;25.31;47.22;100564.56;5001424;28;20408;-89
2022/06/05 06:18:22;;;;;;;17.10;8.35;;;;;;;25.38;47.00;100565.38;5018098;28;20091;-89
2022/06/05 06:20:49;;;;;;;34.67;9.32;;;;;;;25.55;46.66;100572.06;5016822;28;20057;-90
2022/06/05 06:23:17;;;;;;;17.95;7.35;;;;;;;25.57;45.06;100566.31;5017741;28;20034;-90
2022/06/05 06:25:43;;;;;;;33.47;8.75;;;;;;;25.62;46.16;100553.56;4999954;28;20032;-91
2022/06/05 06:28:10;;;;;;;20.13;6.72;;;;;;;25.76;45.57;100557.91;5000261;28;20109;-89
2022/06/05 06:30:36;;;;;;;17.73;5.75;;;;;;;25.81;44.78;100569.06;5020646;28;20250;-87
2022/06/05 06:33:03;;;;;;;14.18;6.07;;;;;;;25.85;44.23;100551.03;4998722;28;20484;-86
2022/06/05 06:35:28;;;;;;;20.65;6.25;;;;;;;25.96;44.21;100555.78;5016307;28;20045;-84
2022/06/05 06:37:54;;;;;;;18.23;6.05;;;;;;;26.11;44.32;100554.59;5015899;28;20076;-84
2022/06/05 06:40:22;;;;;;;23.85;6.35;;;;;;;26.14;44.81;100540.34;4998573;28;20052;-85
2022/06/05 06:42:48;;;;;;;17.73;6.68;;;;;;;26.28;44.92;100555.72;5016102;28;20138;-85
2022/06/05 06:45:13;;;;;;;11.48;5.00;;;;;;;26.20;44.42;100525.69;5015805;28;20053;-83
2022/06/05 06:47:39;;;;;;;8.95;5.72;;;;;;;26.43;43.22;100543.22;5015778;28;20431;-85
2022/06/05 06:50:05;;;;;;;15.73;5.82;;;;;;;26.48;42.72;100550.81;5017619;28;20022;-83
2022/06/05 06:52:31;;;;;;;14.40;5.43;;;;;;;26.60;42.68;100553.66;5015903;28;20407;-84
2022/06/05 06:54:57;;;;;;;14.55;5.45;;;;;;;26.66;42.45;100550.81;5015400;28;20490;-84
2022/06/05 06:57:22;;;;;;;12.85;5.25;;;;;;;26.73;41.38;100554.31;5015265;28;20112;-84
2022/06/05 06:59:48;;;;;;;8.95;4.43;;;;;;;26.74;39.30;100550.50;5014746;28;20029;-84
2022/06/05 07:02:13;;;;;;;6.82;3.88;;;;;;;26.79;37.58;100553.38;5014820;28;20033;-84
2022/06/05 07:04:39;;;;;;;16.33;4.53;;;;;;;26.93;38.19;100559.63;5014910;28;20111;-83
2022/06/05 07:07:04;;;;;;;9.90;4.18;;;;;;;26.94;38.83;100545.56;4997589;28;20076;-85
2022/06/05 07:09:32;;;;;;;13.65;4.82;;;;;;;27.09;38.14;100564.50;5015068;28;20057;-85
2022/06/05 07:11:57;;;;;;;5.05;2.95;;;;;;;27.13;36.43;100553.78;5014768;28;20091;-84
2022/06/05 07:14:23;;;;;;;6.75;2.70;;;;;;;27.14;34.03;100555.50;5014744;28;20476;-83
2022/06/05 07:16:49;;;;;;;4.40;3.05;;;;;;;27.24;32.15;100561.31;5015105;28;20546;-85
2022/06/05 07:19:17;;;;;;;5.93;2.90;;;;;;;27.34;32.75;100567.06;5014705;28;20025;-84
2022/06/05 07:21:42;;;;;;;12.60;3.85;;;;;;;27.36;33.50;100548.38;5014226;28;20170;-83
2022/06/05 07:24:08;;;;;;;14.70;3.88;;;;;;;27.46;34.32;100543.16;5014602;28;20018;-83
2022/06/05 07:26:33;;;;;;;17.95;3.60;;;;;;;27.56;34.60;100546.16;4996702;28;20018;-83
2022/06/05 07:29:00;;;;;;;10.48;3.58;;;;;;;27.66;34.01;100549.19;5014583;28;20049;-83
2022/06/05 07:31:29;;;;;;;4.45;2.92;;;;;;;27.72;33.28;100534.41;5014781;28;20034;-83
2022/06/05 07:33:55;;;;;;;5.88;3.15;;;;;;;27.85;31.57;100552.69;5014468;28;20436;-84
2022/06/05 07:36:21;;;;;;;4.93;2.17;;;;;;;27.76;30.69;100546.69;4997294;28;20499;-84
2022/06/05 07:38:48;;;;;;;6.80;2.50;;;;;;;27.85;30.66;100552.69;5013872;28;20452;-84
2022/06/05 07:41:17;;;;;;;4.43;2.50;;;;;;;27.83;30.69;100544.63;5014205;28;20104;-84
2022/06/05 07:43:44;;;;;;;9.63;2.60;;;;;;;27.91;31.26;100544.28;4996603;28;20018;-83
2022/06/05 07:46:09;;;;;;;6.28;3.47;;;;;;;28.00;32.37;100553.91;4996933;28;20033;-84
2022/06/05 07:48:35;;;;;;;4.50;2.90;;;;;;;27.76;33.79;100538.38;5014863;28;20029;-83
2022/06/05 07:56:35;;;;;;;5.65;3.25;;;;;;;27.68;36.53;100551.69;5014839;28;20060;-85
2022/06/05 07:59:01;;;;;;;10.68;4.32;;;;;;;27.69;37.34;100548.69;5013922;28;20503;-84
2022/06/05 08:01:26;;;;;;;11.13;4.43;;;;;;;27.69;38.10;100542.31;4996717;28;20498;-84
2022/06/05 08:03:53;;;;;;;27.63;7.65;;;;;;;27.78;36.97;100541.75;5014497;28;20028;-85
2022/06/05 08:06:18;;;;;;;30.60;6.03;;;;;;;27.74;36.69;100521.19;5013588;28;20545;-85
2022/06/05 08:08:44;;;;;;;10.25;3.55;;;;;;;27.86;37.06;100546.91;5014546;28;20030;-84
2022/06/05 08:11:10;;;;;;;13.88;3.47;;;;;;;27.93;36.75;100550.41;5014063;28;20037;-85
2022/06/05 08:13:35;;;;;;;11.07;3.42;;;;;;;27.85;35.99;100525.88;4996508;28;20443;-85
2022/06/05 08:16:01;;;;;;;8.45;4.05;;;;;;;27.89;35.17;100527.06;5014824;28;20038;-85
2022/06/05 08:18:26;;;;;;;7.70;3.90;;;;;;;27.92;35.67;100525.78;5014593;28;20024;-85
2022/06/05 08:20:52;;;;;;;16.98;4.10;;;;;;;28.14;36.90;100542.59;5013850;28;20448;-85
2022/06/05 08:23:17;;;;;;;6.60;2.92;;;;;;;28.02;34.44;100532.38;5013640;28;20040;-84
2022/06/05 08:25:44;;;;;;;7.63;2.63;;;;;;;28.08;32.28;100514.84;5014389;28;20045;-84
2022/06/05 08:28:10;;;;;;;10.10;3.78;;;;;;;28.21;32.47;100524.81;5013677;28;20033;-83
2022/06/05 08:30:37;;;;;;;7.60;2.38;;;;;;;28.38;31.76;100533.19;5013729;28;20033;-83
2022/06/05 08:33:04;;;;;;;5.32;1.83;;;;;;;28.39;28.79;100527.41;5013061;28;20454;-84
2022/06/05 08:35:29;;;;;;;4.40;2.50;;;;;;;28.58;29.65;100525.34;5013550;28;20033;-84
2022/06/05 08:43:40;;;;;;;5.47;2.22;;;;;;;29.08;27.82;100537.44;5013365;28;20036;-86
2022/06/05 08:46:10;;;;;;;6.65;2.60;;;;;;;29.24;28.25;100523.91;4995188;28;20029;-83
2022/06/05 08:48:43;;;;;;;7.97;3.10;;;;;;;29.25;28.44;100525.59;5013334;28;20034;-84
2022/06/05 08:51:21;;;;;;;3.95;2.20;;;;;;;29.26;28.51;100516.19;5013054;28;20025;-83
2022/06/05 08:53:57;;;;;;;6.63;2.75;;;;;;;29.30;32.51;100515.44;5012874;28;20076;-84
2022/06/05 08:56:37;;;;;;;10.55;3.55;;;;;;;29.40;34.70;100515.63;5012937;28;20044;-83
2022/06/05 08:59:18;;;;;;;27.05;3.70;;;;;;;29.27;35.51;100513.16;5013036;28;20018;-83
2022/06/05 09:01:58;;;;;;;8.48;3.63;;;;;;;29.21;35.53;100510.50;5013312;28;20040;-84
2022/06/05 09:04:26;;;;;;;4.75;3.15;;;;;;;29.33;35.42;100519.63;4995266;28;20457;-82
2022/06/05 09:07:01;;;;;;;14.48;3.10;;;;;;;29.16;35.93;100506.59;5012897;28;20026;-83
2022/06/05 09:10:01;;;;;;;4.15;3.25;;;;;;;29.25;37.91;100511.75;5013005;28;20510;-83
2022/06/05 09:12:41;;;;;;;10.02;2.97;;;;;;;29.07;37.57;100505.31;5013242;28;20038;-84
2022/06/05 09:15:18;;;;;;;6.35;3.30;;;;;;;29.15;38.18;100509.59;5012553;28;20054;-83
2022/06/05 09:17:52;;;;;;;9.80;3.22;;;;;;;29.16;38.45;100495.50;5012724;28;20026;-83
2022/06/05 09:20:18;;;;;;;4.68;2.45;;;;;;;29.29;37.35;100490.75;4995168;28;20427;-83
2022/06/05 09:22:57;;;;;;;7.03;2.40;;;;;;;29.39;35.49;100479.84;5012534;28;20468;-83
2022/06/05 09:25:45;;;;;;;6.55;2.40;;;;;;;29.63;35.50;100484.13;5012307;28;20105;-84
2022/06/05 09:28:18;;;;;;;9.63;2.80;;;;;;;29.83;36.02;100494.72;4994933;28;20566;-83
2022/06/05 09:31:02;;;;;;;7.07;2.60;;;;;;;29.80;36.78;100484.09;4994823;28;20499;-82
2022/06/05 09:33:34;;;;;;;12.93;6.07;;;;;;;29.91;38.04;100491.50;5012900;28;20022;-83
2022/06/05 09:36:09;;;;;;;8.80;3.25;;;;;;;30.02;40.99;100493.34;5013123;28;20480;-84
2022/06/05 09:38:43;;;;;;;7.20;3.10;;;;;;;29.80;40.82;100484.09;5013377;28;20648;-85
2022/06/05 09:41:11;;;;;;;9.35;2.80;;;;;;;29.79;40.69;100497.13;5012607;28;20076;-84
2022/06/05 09:43:59;;;;;;;8.60;3.50;;;;;;;29.52;39.95;100491.44;4995449;28;20029;-83
2022/06/05 09:46:42;;;;;;;7.35;3.22;;;;;;;29.62;40.79;100476.91;5012416;28;20510;-83
2022/06/05 09:49:21;;;;;;;8.30;3.92;;;;;;;29.51;39.19;100475.88;5013700;28;20025;-84
2022/06/05 09:51:46;;;;;;;9.00;3.38;;;;;;;29.48;39.14;100476.41;5013363;28;20033;-85
2022/06/05 09:54:27;;;;;;;4.28;2.85;;;;;;;29.45;38.77;100465.81;4995609;28;20117;-84
2022/06/05 10:00:02;;;;;;;6.07;2.83;;;;;;;29.47;39.89;100473.88;5014443;28;20028;-88
2022/06/05 10:02:29;;;;;;;12.10;3.38;;;;;;;29.43;39.45;100469.94;5014120;28;20026;-82
2022/06/05 10:04:55;;;;;;;7.45;3.05;;;;;;;29.68;38.26;100475.91;5018185;28;20426;-83
2022/06/05 10:07:34;;;;;;;9.30;2.50;;;;;;;29.77;35.55;100460.50;5021506;28;20036;-83
2022/06/05 10:10:06;;;;;;;5.15;2.72;;;;;;;29.85;32.88;100470.34;5023772;28;20021;-80
2022/06/05 10:12:39;;;;;;;7.43;3.08;;;;;;;30.00;31.74;100471.41;5026830;28;20025;-82
2022/06/05 10:15:29;;;;;;;4.47;2.60;;;;;;;30.14;31.04;100472.72;5018807;28;20030;-83
2022/06/05 10:18:01;;;;;;;8.13;2.60;;;;;;;30.26;29.02;100469.81;5020336;28;20034;-87
2022/06/05 10:20:36;;;;;;;4.50;2.20;;;;;;;30.26;27.89;100467.03;5022543;28;20425;-82
2022/06/05 10:23:35;;;;;;;5.22;2.05;;;;;;;30.32;28.25;100482.66;5002633;28;20033;-88
2022/06/05 10:26:13;;;;;;;14.15;2.45;;;;;;;30.36;28.05;100494.09;5022186;28;20057;-85
2022/06/05 10:28:42;;;;;;;6.38;2.50;;;;;;;30.23;29.07;100484.22;5015726;28;20030;-84
2022/06/05 10:31:12;;;;;;;8.90;3.22;;;;;;;30.35;30.98;100472.97;5015969;28;20028;-86
2022/06/05 10:33:43;;;;;;;9.85;2.50;;;;;;;30.52;33.82;100482.13;5014839;28;20029;-85
2022/06/05 10:36:30;;;;;;;4.88;2.45;;;;;;;30.55;35.54;100476.06;5016895;28;20400;-81
2022/06/05 10:39:07;;;;;;;6.13;2.70;;;;;;;30.56;35.65;100475.78;5015323;28;20058;-82
2022/06/05 10:41:53;;;;;;;17.27;3.60;;;;;;;30.45;37.35;100476.78;5015664;28;20033;-82
2022/06/05 10:44:46;;;;;;;6.43;3.00;;;;;;;30.27;38.78;100487.31;4997815;28;20018;-83
2022/06/05 10:47:19;;;;;;;6.53;3.13;;;;;;;30.04;39.63;100499.47;4994722;28;20024;-83
2022/06/05 10:50:10;;;;;;;9.98;3.95;;;;;;;29.81;38.78;100513.53;5010613;28;20021;-82
2022/06/05 10:52:47;;;;;;;5.95;2.90;;;;;;;29.61;38.51;100487.16;5013941;28;20044;-90
2022/06/05 10:55:22;;;;;;;6.07;3.05;;;;;;;29.45;37.70;100478.81;5009024;28;20026;-84
2022/06/05 10:58:17;;;;;;;9.55;3.05;;;;;;;29.52;37.34;100490.59;5016450;28;20056;-83
2022/06/05 11:01:17;;;;;;;10.20;2.60;;;;;;;29.49;36.91;100482.78;5006930;28;20018;-85
2022/06/05 11:04:05;;;;;;;7.07;2.60;;;;;;;29.44;35.89;100471.63;5009475;28;20024;-84
2022/06/05 11:06:44;;;;;;;14.77;4.13;;;;;;;29.38;36.17;100464.31;5015663;28;20396;-89
2022/06/05 11:09:38;;;;;;;20.38;2.33;;;;;;;29.13;35.30;100468.31;5016031;28;20060;-83
2022/06/05 11:15:23;;;;;;;8.27;2.60;;;;;;;28.79;37.00;100466.56;5014688;28;20025;-81
2022/06/05 11:17:55;;;;;;;11.77;3.42;;;;;;;28.78;38.14;100473.16;5014453;28;20018;-83
2022/06/05 11:20:26;;;;;;;7.78;3.72;;;;;;;28.65;38.94;100469.88;5014613;28;20053;-84
2022/06/05 11:22:58;;;;;;;4.50;2.93;;;;;;;28.55;42.34;100470.47;4998151;28;20464;-85
2022/06/05 11:25:36;;;;;;;7.72;4.05;;;;;;;28.26;46.73;100469.59;5015989;28;20755;-86
2022/06/05 11:28:27;;;;;;;19.50;7.07;;;;;;;28.10;48.96;100457.34;5009094;28;20030;-85
2022/06/05 11:31:12;;;;;;;21.30;4.93;;;;;;;28.00;51.09;100470.94;4995624;28;20045;-86
2022/06/05 11:33:58;;;;;;;20.42;4.65;;;;;;;27.92;53.73;100464.94;4999395;28;20054;-86
2022/06/05 11:36:48;;;;;;;13.40;4.28;;;;;;;27.53;57.33;100444.38;5014553;28;20029;-86
2022/06/05 11:39:42;;;;;;;13.15;6.32;;;;;;;27.43;61.35;100471.78;4981051;28;20032;-87
2022/06/05 11:42:20;;;;;;;8.85;4.20;;;;;;;27.13;64.05;100469.03;5016061;28;20037;-87
2022/06/05 11:44:55;;;;;;;7.78;3.90;;;;;;;26.99;65.46;100465.66;5015864;28;20026;-84
2022/06/05 11:47:57;;;;;;;9.23;4.38;;;;;;;27.10;65.48;100472.28;5015555;28;20081;-88
2022/06/05 11:50:45;;;;;;;7.72;4.65;;;;;;;26.95;65.32;100469.13;5016972;28;20014;-85
2022/06/05 11:53:13;;;;;;;10.45;4.57;;;;;;;26.95;66.02;100478.25;5016773;28;20117;-86
2022/06/05 11:56:00;;;;;;;14.40;4.43;;;;;;;27.06;63.21;100473.00;5015534;28;20076;-83
2022/06/05 11:58:35;;;;;;;10.05;4.15;;;;;;;27.12;62.27;100477.59;5015527;28;20037;-83
2022/06/05 12:01:24;;;;;;;32.97;5.30;;;;;;;27.07;58.69;100482.94;4994891;28;20038;-85
2022/06/05 12:04:00;;;;;;;24.70;4.20;;;;;;;27.16;56.88;100487.91;4994616;28;20101;-86
2022/06/05 12:06:42;;;;;;;8.98;3.58;;;;;;;27.05;52.88;100480.44;4997354;28;20472;-87